createdAt,value
2022-12-26T00:02:01.563Z,7.49
2022-12-26T00:04:49.840Z,7.44
2022-12-26T00:07:21.085Z,7.47
2022-12-26T00:09:49.483Z,7.54
2022-12-26T00:12:18.088Z,7.53
2022-12-26T00:14:46.278Z,7.54
2022-12-26T00:17:14.663Z,7.57
2022-12-26T00:19:43.496Z,7.50
2022-12-26T00:22:11.569Z,7.56
2022-12-26T00:24:39.965Z,7.64
2022-12-26T00:27:08.440Z,7.75
2022-12-26T00:29:36.882Z,7.63
2022-12-26T00:32:05.426Z,7.79
2022-12-26T00:34:33.745Z,7.71
2022-12-26T00:37:02.132Z,7.92
2022-12-26T00:39:30.858Z,7.82
2022-12-26T00:41:58.984Z,7.67
2022-12-26T00:44:27.426Z,7.59
2022-12-26T00:46:55.907Z,7.74
2022-12-26T00:49:24.401Z,7.85
2022-12-26T00:51:52.732Z,7.70
2022-12-26T00:54:21.149Z,7.73
2022-12-26T00:56:49.592Z,7.64
2022-12-26T00:59:18.044Z,7.73
2022-12-26T01:01:46.555Z,7.75
2022-12-26T01:04:14.879Z,7.73
2022-12-26T01:06:43.297Z,7.87
2022-12-26T01:09:13.399Z,7.80
2022-12-26T01:11:43.229Z,7.83
2022-12-26T01:14:19.238Z,7.82
2022-12-26T01:16:47.848Z,7.75
2022-12-26T01:19:17.918Z,7.73
2022-12-26T01:21:47.753Z,7.69
2022-12-26T01:24:17.629Z,7.68
2022-12-26T01:26:47.932Z,7.74
2022-12-26T01:29:17.210Z,7.75
2022-12-26T01:31:47.126Z,7.64
2022-12-26T01:34:16.985Z,7.67
2022-12-26T01:36:46.772Z,7.74
2022-12-26T01:39:16.509Z,7.69
2022-12-26T01:41:46.997Z,7.68
2022-12-26T01:45:07.760Z,7.70
2022-12-26T01:47:58.779Z,7.84
2022-12-26T01:50:44.734Z,7.83
2022-12-26T01:53:34.476Z,7.72
2022-12-26T01:56:26.220Z,7.64
2022-12-26T01:59:13.433Z,7.64
2022-12-26T02:01:50.535Z,7.62
2022-12-26T02:04:58.710Z,7.67
2022-12-26T02:07:28.975Z,7.90
2022-12-26T02:09:58.416Z,7.87
2022-12-26T02:12:38.782Z,7.93
2022-12-26T02:15:17.147Z,7.80
2022-12-26T02:17:47.292Z,7.83
2022-12-26T02:20:31.937Z,7.93
2022-12-26T02:23:51.152Z,8.03
2022-12-26T02:26:51.944Z,7.98
2022-12-26T02:30:11.440Z,7.96
2022-12-26T02:33:11.389Z,7.91
2022-12-26T02:36:13.546Z,7.95
2022-12-26T02:39:44.831Z,8.08
2022-12-26T02:42:58.264Z,8.04
2022-12-26T02:46:21.971Z,8.11
2022-12-26T02:50:39.264Z,8.02
2022-12-26T02:54:39.566Z,8.24
2022-12-26T02:57:42.133Z,8.13
2022-12-26T03:00:41.024Z,7.99
2022-12-26T03:03:58.030Z,7.97
2022-12-26T03:06:53.453Z,8.07
2022-12-26T03:09:54.062Z,8.19
2022-12-26T03:13:11.065Z,8.17
2022-12-26T03:16:21.552Z,8.22
2022-12-26T03:19:03.330Z,8.16
2022-12-26T03:21:45.723Z,8.40
2022-12-26T03:24:18.270Z,8.23
2022-12-26T03:26:55.108Z,8.22
2022-12-26T03:29:43.688Z,8.30
2022-12-26T03:32:12.975Z,8.39
2022-12-26T03:34:45.009Z,8.45
2022-12-26T03:38:09.128Z,8.29
2022-12-26T03:41:56.001Z,8.17
2022-12-26T03:45:19.300Z,8.23
2022-12-26T03:48:37.223Z,8.24
2022-12-26T03:52:23.338Z,8.21
2022-12-26T03:55:48.197Z,8.18
2022-12-26T03:59:08.749Z,8.19
2022-12-26T04:02:04.514Z,8.35
2022-12-26T04:05:01.831Z,8.22
2022-12-26T04:08:05.242Z,8.30
2022-12-26T04:11:08.515Z,8.44
2022-12-26T04:14:37.677Z,8.41
2022-12-26T04:18:10.334Z,8.31
2022-12-26T04:21:49.544Z,8.44
2022-12-26T04:24:53.084Z,8.36
2022-12-26T04:27:47.584Z,8.45
2022-12-26T04:30:35.593Z,8.23
2022-12-26T04:33:47.263Z,8.29
2022-12-26T04:36:52.778Z,8.32
2022-12-26T04:39:50.226Z,8.24
2022-12-26T04:42:43.578Z,8.30
2022-12-26T04:45:15.833Z,8.32
2022-12-26T04:48:05.991Z,8.33
2022-12-26T04:50:34.215Z,8.29
2022-12-26T04:53:02.755Z,8.20
2022-12-26T04:55:35.891Z,8.31
2022-12-26T04:58:05.849Z,8.21
2022-12-26T05:00:35.615Z,8.28
2022-12-26T05:03:40.751Z,8.24
2022-12-26T05:06:28.957Z,8.20
2022-12-26T05:09:16.123Z,8.16
2022-12-26T05:11:47.319Z,8.20
2022-12-26T05:14:16.630Z,8.20
2022-12-26T05:17:05.247Z,8.19
2022-12-26T05:19:53.897Z,8.26
2022-12-26T05:22:53.590Z,8.31
2022-12-26T05:25:52.349Z,8.33
2022-12-26T05:28:41.148Z,8.36
2022-12-26T05:31:18.114Z,8.35
2022-12-26T05:34:07.435Z,8.43
2022-12-26T05:36:48.146Z,8.47
2022-12-26T05:39:18.485Z,8.50
2022-12-26T05:41:48.838Z,8.57
2022-12-26T05:44:18.869Z,8.67
2022-12-26T05:46:49.949Z,8.65
2022-12-26T05:49:20.062Z,8.69
2022-12-26T05:51:48.590Z,8.74
2022-12-26T05:54:17.052Z,8.72
2022-12-26T05:56:49.233Z,8.74
2022-12-26T05:59:16.911Z,8.75
2022-12-26T06:01:45.434Z,8.66
2022-12-26T06:04:14.884Z,8.63
2022-12-26T06:06:42.541Z,8.65
2022-12-26T06:09:10.943Z,8.66
2022-12-26T06:11:45.150Z,8.61
2022-12-26T06:14:18.651Z,8.48
2022-12-26T06:16:48.739Z,8.51
2022-12-26T06:19:19.223Z,8.56
2022-12-26T06:21:49.232Z,8.63
2022-12-26T06:24:19.380Z,8.54
2022-12-26T06:26:49.851Z,8.52
2022-12-26T06:29:19.867Z,8.49
2022-12-26T06:31:49.919Z,8.45
2022-12-26T06:34:19.985Z,8.42
2022-12-26T06:36:48.387Z,8.32
2022-12-26T06:39:16.799Z,8.34
2022-12-26T06:41:45.283Z,8.35
2022-12-26T06:44:18.130Z,8.30
2022-12-26T06:46:48.642Z,8.47
2022-12-26T06:49:18.750Z,8.42
2022-12-26T06:51:48.836Z,8.53
2022-12-26T06:54:18.846Z,8.39
2022-12-26T06:56:48.924Z,8.32
2022-12-26T06:59:19.005Z,8.34
2022-12-26T07:01:49.338Z,8.27
2022-12-26T07:04:19.616Z,8.41
2022-12-26T07:06:49.655Z,8.42
2022-12-26T07:09:20.290Z,8.68
2022-12-26T07:11:51.468Z,8.57
2022-12-26T07:14:21.483Z,8.58
2022-12-26T07:16:51.521Z,8.53
2022-12-26T07:19:21.892Z,8.66
2022-12-26T07:21:51.971Z,8.70
2022-12-26T07:24:23.137Z,8.76
2022-12-26T07:26:53.257Z,8.70
2022-12-26T07:29:23.406Z,8.61
2022-12-26T07:31:53.479Z,8.68
2022-12-26T07:34:29.423Z,8.58
2022-12-26T07:37:01.427Z,8.61
2022-12-26T07:39:29.758Z,8.63
2022-12-26T07:41:58.272Z,8.79
2022-12-26T07:44:31.690Z,8.74
2022-12-26T07:47:02.186Z,8.72
2022-12-26T07:49:32.632Z,8.66
2022-12-26T07:52:03.284Z,8.65
2022-12-26T07:54:33.498Z,8.69
2022-12-26T07:57:22.359Z,8.69
2022-12-26T07:59:54.957Z,8.73
2022-12-26T08:02:25.257Z,8.70
2022-12-26T08:04:55.440Z,8.65
2022-12-26T08:07:26.498Z,8.65
2022-12-26T08:09:56.634Z,8.74
2022-12-26T08:12:27.166Z,8.84
2022-12-26T08:14:57.158Z,8.73
2022-12-26T08:17:27.234Z,8.75
2022-12-26T08:19:57.255Z,8.88
2022-12-26T08:22:28.252Z,8.94
2022-12-26T08:24:58.288Z,8.82
2022-12-26T08:27:28.362Z,8.76
2022-12-26T08:29:58.419Z,8.77
2022-12-26T08:32:28.641Z,8.74
2022-12-26T08:34:58.619Z,8.79
2022-12-26T08:37:27.173Z,8.77
2022-12-26T08:39:55.580Z,8.79
2022-12-26T08:42:24.332Z,8.77
2022-12-26T08:44:52.497Z,8.77
2022-12-26T08:47:22.041Z,8.92
2022-12-26T08:49:49.269Z,8.96
2022-12-26T08:52:17.790Z,8.86
2022-12-26T08:54:46.309Z,8.88
2022-12-26T08:57:15.665Z,8.89
2022-12-26T08:59:43.171Z,8.92
2022-12-26T09:02:14.835Z,8.89
2022-12-26T09:04:43.039Z,8.78
2022-12-26T09:07:11.511Z,8.75
2022-12-26T09:09:40.000Z,8.79
2022-12-26T09:12:14.508Z,8.92
2022-12-26T09:14:44.987Z,8.83
2022-12-26T09:17:15.060Z,8.88
2022-12-26T09:19:45.167Z,8.80
2022-12-26T09:22:35.413Z,8.91
2022-12-26T09:25:06.139Z,8.95
2022-12-26T09:27:36.318Z,8.93
2022-12-26T09:30:07.549Z,8.86
2022-12-26T09:32:36.585Z,8.95
2022-12-26T09:35:07.182Z,8.94
2022-12-26T09:37:37.349Z,9.08
2022-12-26T09:40:27.107Z,9.04
2022-12-26T09:43:21.434Z,9.09
2022-12-26T09:46:22.962Z,9.22
2022-12-26T09:49:12.299Z,9.13
2022-12-26T09:51:51.030Z,9.14
2022-12-26T09:54:54.785Z,9.12
2022-12-26T09:57:46.164Z,9.19
2022-12-26T10:00:30.076Z,9.20
2022-12-26T10:03:00.714Z,9.34
2022-12-26T10:06:30.219Z,9.35
2022-12-26T10:09:31.312Z,9.32
2022-12-26T10:12:39.193Z,9.41
2022-12-26T10:15:42.763Z,9.38
2022-12-26T10:19:06.610Z,9.32
2022-12-26T10:22:54.496Z,9.46
2022-12-26T10:25:48.379Z,9.42
2022-12-26T10:28:52.028Z,9.43
2022-12-26T10:32:14.198Z,9.57
2022-12-26T10:34:49.495Z,9.52
2022-12-26T10:37:41.019Z,9.42
2022-12-26T10:40:27.171Z,9.49
2022-12-26T10:43:46.769Z,9.36
2022-12-26T10:47:03.808Z,9.29
2022-12-26T10:49:33.964Z,9.46
2022-12-26T10:52:04.898Z,9.39
2022-12-26T10:54:35.073Z,9.37
2022-12-26T10:57:08.635Z,9.27
2022-12-26T10:59:48.827Z,9.20
2022-12-26T11:02:33.179Z,9.24
2022-12-26T11:05:27.184Z,9.12
2022-12-26T11:08:47.769Z,9.11
2022-12-26T11:11:48.227Z,9.00
2022-12-26T11:14:40.120Z,9.01
2022-12-26T11:17:47.005Z,9.03
2022-12-26T11:20:16.934Z,9.06
2022-12-26T11:22:47.547Z,8.94
2022-12-26T11:25:35.190Z,8.88
2022-12-26T11:28:37.801Z,8.85
2022-12-26T11:31:28.243Z,8.94
2022-12-26T11:34:01.623Z,8.87
2022-12-26T11:36:32.817Z,8.80
2022-12-26T11:39:22.889Z,8.84
2022-12-26T11:41:54.046Z,8.93
2022-12-26T11:44:35.980Z,8.79
2022-12-26T11:47:14.298Z,8.87
2022-12-26T11:50:03.463Z,8.84
2022-12-26T11:52:47.399Z,8.77
2022-12-26T11:55:23.202Z,8.76
2022-12-26T11:58:10.129Z,8.79
2022-12-26T12:01:06.869Z,8.81
2022-12-26T12:03:50.869Z,8.79
2022-12-26T12:06:56.384Z,8.90
2022-12-26T12:10:05.252Z,8.85
2022-12-26T12:13:03.492Z,8.85
2022-12-26T12:16:01.170Z,8.84
2022-12-26T12:19:27.038Z,8.84
2022-12-26T12:22:56.431Z,8.86
2022-12-26T12:26:10.718Z,8.89
2022-12-26T12:29:12.580Z,8.79
2022-12-26T12:32:40.037Z,8.66
2022-12-26T12:36:11.135Z,8.71
2022-12-26T12:39:18.985Z,8.62
2022-12-26T12:42:53.504Z,8.56
2022-12-26T12:45:30.130Z,8.65
2022-12-26T12:48:37.267Z,8.65
2022-12-26T12:51:27.889Z,8.72
2022-12-26T12:54:27.784Z,8.84
2022-12-26T12:57:49.284Z,8.74
2022-12-26T13:00:51.964Z,8.74
2022-12-26T13:03:47.785Z,8.68
2022-12-26T13:06:42.881Z,8.66
2022-12-26T13:09:31.713Z,8.71
2022-12-26T13:12:11.870Z,8.82
2022-12-26T13:14:54.145Z,8.75
2022-12-26T13:17:47.894Z,8.73
2022-12-26T13:20:50.743Z,8.73
2022-12-26T13:24:08.018Z,8.63
2022-12-26T13:26:47.490Z,8.64
2022-12-26T13:29:45.291Z,8.62
2022-12-26T13:32:25.167Z,8.62
2022-12-26T13:35:03.008Z,8.76
2022-12-26T13:37:32.896Z,8.70
2022-12-26T13:40:20.272Z,8.69
2022-12-26T13:43:28.225Z,8.63
2022-12-26T13:45:58.427Z,8.47
2022-12-26T13:48:30.423Z,8.47
2022-12-26T13:51:05.885Z,8.29
2022-12-26T13:53:41.667Z,8.23
2022-12-26T13:56:31.797Z,8.19
2022-12-26T13:59:12.755Z,8.09
2022-12-26T14:03:07.592Z,8.07
2022-12-26T14:06:43.030Z,8.10
2022-12-26T14:09:36.164Z,8.08
2022-12-26T14:12:53.552Z,8.03
2022-12-26T14:15:59.765Z,7.98
2022-12-26T14:19:25.445Z,7.88
2022-12-26T14:22:45.447Z,7.85
2022-12-26T14:26:19.949Z,7.81
2022-12-26T14:29:32.967Z,7.73
2022-12-26T14:32:45.724Z,7.73
2022-12-26T14:35:50.850Z,7.73
2022-12-26T14:38:52.195Z,7.67
2022-12-26T14:41:41.900Z,7.57
2022-12-26T14:44:20.735Z,7.50
2022-12-26T14:46:50.651Z,7.62
2022-12-26T14:49:40.178Z,7.57
2022-12-26T14:52:24.628Z,7.39
2022-12-26T14:54:56.082Z,7.31
2022-12-26T14:57:48.982Z,7.28
2022-12-26T15:00:21.220Z,7.26
2022-12-26T15:03:01.708Z,7.14
2022-12-26T15:05:41.604Z,7.11
2022-12-26T15:09:18.901Z,7.09
2022-12-26T15:12:18.555Z,7.15
2022-12-26T15:15:43.281Z,7.21
2022-12-26T15:19:13.967Z,7.30
2022-12-26T15:22:17.666Z,7.30
2022-12-26T15:25:27.107Z,7.25
2022-12-26T15:28:44.363Z,7.45
2022-12-26T15:31:47.856Z,7.44
2022-12-26T15:34:53.837Z,7.44
2022-12-26T15:37:56.932Z,7.34
2022-12-26T15:40:43.101Z,7.32
2022-12-26T15:44:01.707Z,7.41
2022-12-26T15:46:44.121Z,7.36
2022-12-26T15:49:44.574Z,7.33
2022-12-26T15:52:52.041Z,7.33
2022-12-26T15:55:48.246Z,7.30
2022-12-26T15:59:27.621Z,7.35
2022-12-26T16:01:58.549Z,7.19
2022-12-26T16:04:38.580Z,7.30
2022-12-26T16:07:35.752Z,7.29
2022-12-26T16:10:25.170Z,7.26
2022-12-26T16:13:12.424Z,7.14
2022-12-26T16:15:51.225Z,7.29
2022-12-26T16:18:27.080Z,7.41
2022-12-26T16:21:23.757Z,7.46
2022-12-26T16:23:57.326Z,7.50
2022-12-26T16:26:44.007Z,7.51
2022-12-26T16:29:21.317Z,7.57
2022-12-26T16:31:51.533Z,7.54
2022-12-26T16:34:36.617Z,7.59
2022-12-26T16:37:06.893Z,7.54
2022-12-26T16:39:35.239Z,7.49
2022-12-26T16:42:31.024Z,7.49
2022-12-26T16:45:02.384Z,7.53
2022-12-26T16:47:34.703Z,7.55
2022-12-26T16:50:06.363Z,7.54
2022-12-26T16:52:45.940Z,7.59
2022-12-26T16:55:48.021Z,7.70
2022-12-26T16:58:38.220Z,7.77
2022-12-26T17:01:22.402Z,7.81
2022-12-26T17:04:04.582Z,7.82
2022-12-26T17:07:05.244Z,7.81
2022-12-26T17:09:52.237Z,7.89
2022-12-26T17:12:35.694Z,7.92
2022-12-26T17:15:08.350Z,7.83
2022-12-26T17:17:39.632Z,7.83
2022-12-26T17:20:25.039Z,7.76
2022-12-26T17:22:57.584Z,7.77
2022-12-26T17:25:29.642Z,7.74
2022-12-26T17:28:15.050Z,7.89
2022-12-26T17:30:49.635Z,7.71
2022-12-26T17:33:26.792Z,7.73
2022-12-26T17:38:57.992Z,7.58
2022-12-26T17:41:25.964Z,7.53
2022-12-26T17:43:54.377Z,7.69
2022-12-26T17:46:21.422Z,7.64
2022-12-26T17:48:48.598Z,7.58
2022-12-26T17:51:19.275Z,7.52
2022-12-26T17:53:52.036Z,7.52
2022-12-26T17:56:27.257Z,7.30
2022-12-26T17:58:55.692Z,7.14
2022-12-26T18:01:23.636Z,7.31
2022-12-26T18:03:52.946Z,7.36
2022-12-26T18:06:22.016Z,7.21
2022-12-26T18:08:51.923Z,7.08
2022-12-26T18:11:20.187Z,6.98
2022-12-26T18:13:48.649Z,7.13
2022-12-26T18:16:25.007Z,7.28
2022-12-26T18:18:52.388Z,7.21
2022-12-26T18:21:22.364Z,7.26
2022-12-26T18:23:52.618Z,7.08
2022-12-26T18:26:29.360Z,6.97
2022-12-26T18:28:59.467Z,6.87
2022-12-26T18:31:31.203Z,6.85
2022-12-26T18:33:59.571Z,6.80
2022-12-26T18:36:36.014Z,6.95
2022-12-26T18:39:06.202Z,6.81
2022-12-26T18:41:36.214Z,6.90
2022-12-26T18:44:05.687Z,6.80
2022-12-26T18:46:35.842Z,6.66
2022-12-26T18:49:03.015Z,6.70
2022-12-26T18:51:33.123Z,6.61
2022-12-26T18:54:03.162Z,6.48
2022-12-26T18:56:33.237Z,6.68
2022-12-26T18:59:03.352Z,6.60
2022-12-26T19:01:33.147Z,6.49
2022-12-26T19:04:03.283Z,6.33
2022-12-26T19:06:35.341Z,6.46
2022-12-26T19:09:04.757Z,6.42
2022-12-26T19:11:34.865Z,6.25
2022-12-26T19:14:08.576Z,6.18
2022-12-26T19:16:38.863Z,6.18
2022-12-26T19:19:09.418Z,6.30
2022-12-26T19:21:39.230Z,6.28
2022-12-26T19:24:12.392Z,6.15
2022-12-26T19:26:40.787Z,6.03
2022-12-26T19:29:11.901Z,6.18
2022-12-26T19:31:41.980Z,6.05
2022-12-26T19:34:12.050Z,6.07
2022-12-26T19:36:42.089Z,6.25
2022-12-26T19:39:12.067Z,6.38
2022-12-26T19:41:42.129Z,6.13
2022-12-26T19:44:12.431Z,5.92
2022-12-26T19:46:42.472Z,5.86
2022-12-26T19:49:12.517Z,5.78
2022-12-26T19:51:42.405Z,5.84
2022-12-26T19:54:12.414Z,5.81
2022-12-26T19:56:42.424Z,5.72
2022-12-26T19:59:12.473Z,5.67
2022-12-26T20:01:42.807Z,5.65
2022-12-26T20:04:12.728Z,5.66
2022-12-26T20:06:42.879Z,5.46
2022-12-26T20:09:16.208Z,5.61
2022-12-26T20:11:54.146Z,5.56
2022-12-26T20:14:26.834Z,5.50
2022-12-26T20:17:06.081Z,5.41
2022-12-26T20:19:38.020Z,5.34
2022-12-26T20:22:08.266Z,5.26
2022-12-26T20:24:38.333Z,5.20
2022-12-26T20:27:08.553Z,5.27
2022-12-26T20:29:38.692Z,5.17
2022-12-26T20:32:07.047Z,5.17
2022-12-26T20:34:35.679Z,5.19
2022-12-26T20:37:03.989Z,5.17
2022-12-26T20:39:32.327Z,5.21
2022-12-26T20:42:00.661Z,5.15
2022-12-26T20:44:29.163Z,5.09
2022-12-26T20:46:57.514Z,4.96
2022-12-26T20:49:25.971Z,5.03
2022-12-26T20:51:54.288Z,4.91
2022-12-26T20:54:22.776Z,4.89
2022-12-26T20:56:51.408Z,4.73
2022-12-26T20:59:19.840Z,4.75
2022-12-26T21:01:48.072Z,4.83
2022-12-26T21:04:23.229Z,4.83
2022-12-26T21:06:51.339Z,4.77
2022-12-26T21:09:21.490Z,4.78
2022-12-26T21:11:51.646Z,4.68
2022-12-26T21:14:23.747Z,4.71
2022-12-26T21:16:57.964Z,4.63
2022-12-26T21:19:30.561Z,4.73
2022-12-26T21:21:59.919Z,4.55
2022-12-26T21:24:33.016Z,4.71
2022-12-26T21:27:00.307Z,4.64
2022-12-26T21:29:34.963Z,4.39
2022-12-26T21:32:05.603Z,4.39
2022-12-26T21:34:34.187Z,4.34
2022-12-26T21:37:22.095Z,4.32
2022-12-26T21:39:52.135Z,4.16
2022-12-26T21:42:22.421Z,4.10
2022-12-26T21:44:52.404Z,4.14
2022-12-26T21:47:22.523Z,4.17
2022-12-26T21:49:50.918Z,4.04
2022-12-26T21:52:19.265Z,3.93
2022-12-26T21:55:06.415Z,4.01
2022-12-26T21:57:36.643Z,3.95
2022-12-26T22:00:08.085Z,4.10
2022-12-26T22:02:57.623Z,4.04
2022-12-26T22:05:30.644Z,4.06
2022-12-26T22:08:01.906Z,4.04
2022-12-26T22:10:51.584Z,3.96
2022-12-26T22:13:23.854Z,4.08
2022-12-26T22:16:09.111Z,4.24
2022-12-26T22:18:44.521Z,4.21
2022-12-26T22:21:21.446Z,4.08
2022-12-26T22:23:53.777Z,4.04
2022-12-26T22:26:24.264Z,3.98
2022-12-26T22:28:56.494Z,3.99
2022-12-26T22:31:35.333Z,4.01
2022-12-26T22:34:14.139Z,4.03
2022-12-26T22:36:44.347Z,4.02
2022-12-26T22:39:17.477Z,4.12
2022-12-26T22:41:47.175Z,4.00
2022-12-26T22:44:16.744Z,3.87
2022-12-26T22:46:45.267Z,3.98
2022-12-26T22:49:13.579Z,3.85
2022-12-26T22:51:42.376Z,4.00
2022-12-26T22:54:10.487Z,3.94
2022-12-26T22:56:40.236Z,4.04
2022-12-26T22:59:27.429Z,3.95
2022-12-26T23:02:02.798Z,3.92
2022-12-26T23:04:33.340Z,3.86
2022-12-26T23:07:03.915Z,4.01
2022-12-26T23:09:34.353Z,3.93
2022-12-26T23:12:25.185Z,3.83
2022-12-26T23:14:55.696Z,3.79
2022-12-26T23:17:49.988Z,3.76
2022-12-26T23:20:43.105Z,3.72
2022-12-26T23:23:13.687Z,3.61
2022-12-26T23:25:43.795Z,3.56
2022-12-26T23:28:32.527Z,3.62
2022-12-26T23:31:06.212Z,3.60
2022-12-26T23:33:36.298Z,3.61
2022-12-26T23:36:08.146Z,3.57
2022-12-26T23:38:37.769Z,3.49
2022-12-26T23:41:06.163Z,3.58
2022-12-26T23:43:34.678Z,3.53
2022-12-26T23:46:10.609Z,3.60
2022-12-26T23:48:40.715Z,3.57
2022-12-26T23:51:10.717Z,3.56
2022-12-26T23:53:40.795Z,3.60
2022-12-26T23:56:11.149Z,3.59
2022-12-26T23:58:42.316Z,3.66
